Time;durP1;ratioP1;P1;durP2;ratioP2;P2;SDS_P1;SDS_P2;PMS_P1;PMS_P2;Temp;Humidity;BMP_temperature;BMP_pressure;BME280_temperature;BME280_humidity;BME280_pressure;Samples;Min_cycle;Max_cycle;Signal;HPM_P1;HPM_P2
2023/04/20 08:43:00;;;;;;;4.57;3.20;;;;;;;;;;4901231;29;20075;-83
2023/04/20 08:45:26;;;;;;;3.38;3.08;;;;;;;;;;4937305;29;20270;-80
2023/04/20 08:47:51;;;;;;;3.25;2.95;;;;;;;;;;4936994;29;20027;-83
2023/04/20 08:50:19;;;;;;;3.28;2.95;;;;;;;;;;4937033;29;20114;-81
2023/04/20 08:52:44;;;;;;;3.40;3.10;;;;;;;;;;4936885;29;20024;-81
2023/04/20 08:55:17;;;;;;;3.40;3.10;;;;;;;;;;4937368;29;20034;-80
2023/04/20 08:57:42;;;;;;;3.88;3.22;;;;;;;;;;4936957;29;20107;-81
2023/04/20 09:00:10;;;;;;;4.22;3.35;;;;;;;;;;4936710;29;20110;-82
2023/04/20 09:02:49;;;;;;;3.38;3.08;;;;;;;;;;4936821;29;20059;-81
2023/04/20 09:05:15;;;;;;;3.33;3.00;;;;;;;;;;4936940;29;20028;-82
2023/04/20 09:07:50;;;;;;;4.00;3.25;;;;;;;;;;4936981;29;20035;-81
2023/04/20 09:10:15;;;;;;;3.42;3.13;;;;;;;;;;4936790;29;20390;-83
2023/04/20 09:12:41;;;;;;;4.38;3.67;;;;;;;;;;4936890;29;20102;-85
2023/04/20 09:15:07;;;;;;;3.20;2.90;;;;;;;;;;4936657;29;20034;-85
2023/04/20 09:17:35;;;;;;;3.58;2.95;;;;;;;;;;4936386;29;20530;-83
2023/04/20 09:20:01;;;;;;;2.58;2.38;;;;;;;;;;4936489;29;20032;-86
2023/04/20 09:22:36;;;;;;;2.67;2.47;;;;;;;;;;4936982;29;20028;-85
2023/04/20 09:25:16;;;;;;;2.88;2.67;;;;;;;;;;4936808;29;20078;-86
2023/04/20 09:27:41;;;;;;;2.88;2.60;;;;;;;;;;4919812;29;20031;-87
2023/04/20 09:30:08;;;;;;;4.63;3.53;;;;;;;;;;4937091;29;20502;-84
2023/04/20 09:32:34;;;;;;;3.60;3.30;;;;;;;;;;4937619;29;20055;-84
2023/04/20 09:35:00;;;;;;;3.30;3.00;;;;;;;;;;4937035;29;20024;-84
2023/04/20 09:37:25;;;;;;;3.00;2.70;;;;;;;;;;4936238;29;20046;-83
2023/04/20 09:39:58;;;;;;;4.47;3.42;;;;;;;;;;4936208;29;20082;-85
2023/04/20 09:42:26;;;;;;;6.50;4.65;;;;;;;;;;4936158;29;20062;-86
2023/04/20 09:44:52;;;;;;;8.10;6.93;;;;;;;;;;4936309;29;20039;-85
2023/04/20 09:47:17;;;;;;;7.55;5.90;;;;;;;;;;4936178;29;20024;-84
2023/04/20 09:49:45;;;;;;;6.68;5.60;;;;;;;;;;4936144;29;20024;-85
2023/04/20 09:52:15;;;;;;;5.65;4.75;;;;;;;;;;4936275;29;20034;-84
2023/04/20 09:54:41;;;;;;;;;;;;;;;;;;4919379;29;20027;-87
2023/04/20 09:57:07;;;;;;;4.63;4.15;;;;;;;;;;4936032;29;20413;-84
2023/04/20 09:59:33;;;;;;;5.18;4.60;;;;;;;;;;4935943;29;20066;-86
2023/04/20 10:01:58;;;;;;;4.35;3.40;;;;;;;;;;4936164;29;20055;-85
2023/04/20 10:04:23;;;;;;;4.60;3.60;;;;;;;;;;4935996;29;20032;-84
2023/04/20 10:06:55;;;;;;;3.65;3.10;;;;;;;;;;4936193;29;20059;-84
2023/04/20 10:09:24;;;;;;;3.85;3.45;;;;;;;;;;4935845;29;20391;-83
2023/04/20 10:11:51;;;;;;;4.68;3.92;;;;;;;;;;4936040;29;20059;-83
2023/04/20 10:14:24;;;;;;;4.20;3.55;;;;;;;;;;4935999;29;20028;-84
2023/04/20 10:17:03;;;;;;;4.22;3.80;;;;;;;;;;4936085;29;20063;-82
2023/04/20 10:19:41;;;;;;;3.72;3.38;;;;;;;;;;4936088;29;20087;-83
2023/04/20 10:22:12;;;;;;;3.15;2.85;;;;;;;;;;4935721;29;20028;-85
2023/04/20 10:24:38;;;;;;;3.60;3.30;;;;;;;;;;4935908;29;20083;-85
2023/04/20 10:27:15;;;;;;;3.80;3.40;;;;;;;;;;4935951;29;20028;-85
2023/04/20 10:29:41;;;;;;;3.70;3.40;;;;;;;;;;4935748;29;20027;-85
2023/04/20 10:32:06;;;;;;;4.32;3.92;;;;;;;;;;4935778;29;20028;-85
2023/04/20 10:34:34;;;;;;;4.60;4.05;;;;;;;;;;4935566;29;20027;-83
2023/04/20 10:37:10;;;;;;;5.45;4.55;;;;;;;;;;4935786;29;20059;-83
2023/04/20 10:39:42;;;;;;;5.25;4.75;;;;;;;;;;4918506;29;20042;-85
2023/04/20 10:42:08;;;;;;;6.85;4.43;;;;;;;;;;4935912;29;20024;-83
2023/04/20 10:44:34;;;;;;;4.38;3.97;;;;;;;;;;4935553;29;20050;-82
2023/04/20 10:47:00;;;;;;;4.95;4.40;;;;;;;;;;4935619;29;20055;-83
2023/04/20 10:49:27;;;;;;;5.30;4.40;;;;;;;;;;4938285;29;20554;-84
2023/04/20 10:51:53;;;;;;;4.95;4.07;;;;;;;;;;4939160;29;20075;-84
2023/04/20 10:54:19;;;;;;;4.68;3.97;;;;;;;;;;4939273;29;20063;-83
2023/04/20 10:56:46;;;;;;;5.03;4.47;;;;;;;;;;4947802;29;20490;-85
2023/04/20 10:59:14;;;;;;;5.85;4.28;;;;;;;;;;4940839;29;20495;-86
2023/04/20 11:01:40;;;;;;;5.18;4.10;;;;;;;;;;4941339;29;20036;-83
2023/04/20 11:04:06;;;;;;;5.35;4.85;;;;;;;;;;4939129;29;20034;-83
2023/04/20 11:06:33;;;;;;;5.40;4.68;;;;;;;;;;4938812;29;20034;-82
2023/04/20 11:08:58;;;;;;;7.15;5.40;;;;;;;;;;4938719;29;20035;-83
2023/04/20 11:11:28;;;;;;;15.30;9.82;;;;;;;;;;4938887;29;20459;-82
2023/04/20 11:14:06;;;;;;;;;;;;;;;;;;4939154;29;20020;-82
2023/04/20 11:16:32;;;;;;;9.70;7.03;;;;;;;;;;4938781;29;20005;-82
2023/04/20 11:18:58;;;;;;;5.15;4.35;;;;;;;;;;4938818;29;20067;-83
2023/04/20 11:21:35;;;;;;;3.92;3.53;;;;;;;;;;4938781;29;20024;-83
2023/04/20 11:24:00;;;;;;;5.57;3.67;;;;;;;;;;4938648;29;20030;-82
2023/04/20 11:26:39;;;;;;;5.60;4.72;;;;;;;;;;4938713;29;20450;-84
2023/04/20 11:29:05;;;;;;;3.83;3.53;;;;;;;;;;4938491;29;20043;-84
2023/04/20 11:31:30;;;;;;;3.53;2.60;;;;;;;;;;4921368;29;20266;-82
2023/04/20 11:33:56;;;;;;;2.50;2.30;;;;;;;;;;4938287;29;20107;-82
2023/04/20 11:36:23;;;;;;;2.90;2.63;;;;;;;;;;4938255;29;20032;-83
2023/04/20 11:38:49;;;;;;;2.72;2.53;;;;;;;;;;4938249;29;20039;-82
2023/04/20 11:41:16;;;;;;;2.80;2.55;;;;;;;;;;4938274;29;20110;-83
2023/04/20 11:43:42;;;;;;;2.47;2.28;;;;;;;;;;4937982;29;20051;-83
2023/04/20 16:05:09;;;;;;;3.03;2.60;;;;;;;;;;4896843;29;20503;-89
2023/04/20 16:07:35;;;;;;;4.05;2.72;;;;;;;;;;4899972;29;20160;-88
2023/04/20 16:10:01;;;;;;;3.33;3.03;;;;;;;;;;4900162;29;20029;-88
2023/04/20 16:12:27;;;;;;;3.08;2.80;;;;;;;;;;4900040;29;20036;-89
2023/04/20 16:14:52;;;;;;;2.80;2.60;;;;;;;;;;4883353;29;20033;-89
2023/04/20 16:17:17;;;;;;;2.95;2.75;;;;;;;;;;4900338;29;20107;-88
2023/04/20 16:19:43;;;;;;;3.35;2.70;;;;;;;;;;4901476;29;20160;-90
2023/04/20 16:22:08;;;;;;;2.58;2.38;;;;;;;;;;4900119;29;20036;-89
2023/04/20 16:24:34;;;;;;;2.55;2.35;;;;;;;;;;4900087;29;20028;-88
2023/04/20 16:27:00;;;;;;;2.50;2.30;;;;;;;;;;4900020;29;20033;-88
2023/04/20 16:29:26;;;;;;;2.65;2.45;;;;;;;;;;4899906;29;20135;-87
2023/04/20 16:31:51;;;;;;;2.90;2.70;;;;;;;;;;4898389;29;20116;-88
2023/04/20 16:34:17;;;;;;;4.13;2.58;;;;;;;;;;4902306;29;20032;-91
2023/04/20 16:36:43;;;;;;;3.10;2.38;;;;;;;;;;4919022;29;20035;-93
2023/04/20 16:39:09;;;;;;;2.53;2.33;;;;;;;;;;4918924;29;20376;-90
2023/04/20 16:41:34;;;;;;;2.45;2.25;;;;;;;;;;4918714;29;20028;-92
2023/04/20 16:44:00;;;;;;;3.30;2.25;;;;;;;;;;4919312;29;20032;-92
2023/04/20 16:46:25;;;;;;;3.72;2.67;;;;;;;;;;4918319;29;20043;-89
2023/04/20 16:48:53;;;;;;;3.10;2.80;;;;;;;;;;4919040;29;20099;-91
2023/04/20 16:51:19;;;;;;;2.57;2.30;;;;;;;;;;4918874;29;20055;-84
2023/04/20 16:53:45;;;;;;;2.80;2.58;;;;;;;;;;4918809;29;20420;-90
2023/04/20 16:56:11;;;;;;;3.53;3.22;;;;;;;;;;4919348;29;20052;-91
2023/04/20 16:58:38;;;;;;;6.40;5.80;;;;;;;;;;4918076;29;20032;-93
2023/04/20 17:01:03;;;;;;;4.10;3.53;;;;;;;;;;4918878;29;20381;-93
2023/04/20 17:03:29;;;;;;;4.07;3.70;;;;;;;;;;4918737;29;20024;-93
2023/04/20 21:26:58;;;;;;;2.50;2.30;;;;;;;;;;5048264;23;20062;-82
2023/04/20 21:29:24;;;;;;;2.60;2.40;;;;;;;;;;4919325;29;20039;-81
2023/04/20 21:31:50;;;;;;;3.00;2.80;;;;;;;;;;4936132;29;20452;-79
